Time;durP1;ratioP1;P1;durP2;ratioP2;P2;SDS_P1;SDS_P2;PMS_P1;PMS_P2;Temp;Humidity;BMP_temperature;BMP_pressure;BME280_temperature;BME280_humidity;BME280_pressure;Samples;Min_cycle;Max_cycle;Signal;HPM_P1;HPM_P2
2021/06/20 00:02:18;;;;;;;8.73;5.88;;;;;;;27.46;50.64;99274.69;10465498;28;20056;-71
2021/06/20 00:07:20;;;;;;;8.68;6.25;;;;;;;27.49;50.80;99276.91;10467240;28;20511;-72
2021/06/20 00:12:21;;;;;;;8.55;5.90;;;;;;;27.49;50.04;99282.38;10463720;28;20051;-72
2021/06/20 00:17:23;;;;;;;10.48;5.78;;;;;;;27.53;49.98;99271.72;10461609;28;20044;-71
2021/06/20 00:22:24;;;;;;;11.90;6.30;;;;;;;27.55;49.27;99271.47;10467919;28;20044;-71
2021/06/20 00:27:26;;;;;;;10.13;5.88;;;;;;;27.57;48.86;99242.00;10491998;28;20055;-72
2021/06/20 00:32:28;;;;;;;9.20;6.65;;;;;;;27.61;48.85;99237.63;10471205;28;20051;-70
2021/06/20 00:37:29;;;;;;;9.50;5.47;;;;;;;27.59;48.39;99246.09;10465870;28;20043;-71
2021/06/20 00:42:31;;;;;;;8.18;5.30;;;;;;;27.60;48.30;99246.94;10469382;28;20057;-72
2021/06/20 00:47:33;;;;;;;6.68;5.93;;;;;;;27.64;48.40;99254.34;10462996;28;20045;-70
2021/06/20 00:52:35;;;;;;;8.37;5.93;;;;;;;27.61;48.73;99254.03;10470749;28;20532;-71
2021/06/20 00:57:36;;;;;;;14.32;6.18;;;;;;;27.59;48.83;99250.75;10461318;28;20051;-72
2021/06/20 01:02:38;;;;;;;11.35;6.80;;;;;;;27.53;48.80;99244.41;10463523;28;20063;-71
2021/06/20 01:07:41;;;;;;;6.82;5.32;;;;;;;27.51;48.74;99246.59;10466185;28;20094;-72
2021/06/20 01:12:42;;;;;;;9.95;6.40;;;;;;;27.41;48.87;99250.03;10467502;28;20048;-71
2021/06/20 01:17:44;;;;;;;8.35;6.22;;;;;;;27.42;49.03;99272.75;10461361;28;20052;-71
2021/06/20 01:22:49;;;;;;;11.53;6.20;;;;;;;27.47;49.42;99276.34;10455591;28;20679;-73
2021/06/20 01:28:04;;;;;;;9.98;6.97;;;;;;;27.40;49.85;99303.06;10464081;28;20055;-73
2021/06/20 01:33:08;;;;;;;11.52;7.18;;;;;;;27.43;49.49;99324.41;10458675;28;20089;-71
2021/06/20 01:38:10;;;;;;;10.98;6.43;;;;;;;27.44;49.60;99325.22;10460783;28;20075;-73
2021/06/20 01:43:12;;;;;;;8.67;6.77;;;;;;;27.43;49.69;99329.00;10464924;28;20056;-71
2021/06/20 01:48:14;;;;;;;12.97;7.33;;;;;;;27.35;50.79;99333.03;10471246;28;20076;-71
2021/06/20 01:53:16;;;;;;;11.68;8.10;;;;;;;27.30;51.59;99338.44;10462685;28;21057;-72
2021/06/20 01:58:18;;;;;;;11.23;7.43;;;;;;;27.20;52.28;99344.59;10461659;28;20067;-70
2021/06/20 02:03:24;;;;;;;11.27;7.57;;;;;;;27.17;52.71;99359.59;10464049;28;20367;-73
2021/06/20 02:08:26;;;;;;;11.05;6.97;;;;;;;27.15;53.18;99367.19;10456283;28;20106;-71
2021/06/20 02:13:28;;;;;;;10.90;7.10;;;;;;;27.17;53.57;99375.13;10460240;28;20371;-72
2021/06/20 02:18:30;;;;;;;15.65;7.35;;;;;;;27.10;53.63;99380.81;10464465;28;20047;-70
2021/06/20 02:23:31;;;;;;;12.48;6.40;;;;;;;27.07;53.63;99378.59;10467054;28;20037;-70
2021/06/20 02:28:33;;;;;;;13.15;6.03;;;;;;;27.05;52.11;99377.19;10460025;28;20628;-73
2021/06/20 02:33:34;;;;;;;9.85;5.30;;;;;;;26.95;51.24;99378.69;10461690;28;20434;-71
2021/06/20 02:38:36;;;;;;;14.95;5.63;;;;;;;26.95;51.82;99383.34;10453122;28;20082;-74
2021/06/20 02:43:37;;;;;;;13.73;6.05;;;;;;;26.96;51.40;99379.50;10464540;28;20145;-73
2021/06/20 02:48:39;;;;;;;15.52;5.35;;;;;;;26.90;51.62;99397.75;10457893;28;20056;-72
2021/06/20 02:53:40;;;;;;;12.55;4.90;;;;;;;26.83;51.31;99409.91;10454824;28;20056;-71
2021/06/20 02:58:42;;;;;;;15.23;5.70;;;;;;;26.78;51.97;99408.78;10449162;28;20542;-74
2021/06/20 03:03:44;;;;;;;10.82;4.78;;;;;;;26.69;52.25;99399.34;10455272;28;20053;-72
2021/06/20 03:08:46;;;;;;;8.57;4.43;;;;;;;26.69;52.61;99407.53;10454093;28;20110;-72
2021/06/20 03:13:48;;;;;;;9.70;4.88;;;;;;;26.60;52.94;99414.47;10463204;28;20286;-71
2021/06/20 03:18:50;;;;;;;11.80;5.07;;;;;;;26.60;53.15;99422.66;10455920;28;20441;-72
2021/06/20 03:23:51;;;;;;;11.23;4.90;;;;;;;26.52;53.20;99458.56;10461542;28;20037;-73
2021/06/20 03:28:54;;;;;;;12.13;6.15;;;;;;;26.46;54.06;99485.75;10451029;28;20453;-70
2021/06/20 03:34:00;;;;;;;12.45;5.32;;;;;;;26.37;53.83;99486.41;10457523;28;20618;-73
2021/06/20 03:39:03;;;;;;;9.25;4.05;;;;;;;26.28;52.40;99494.16;10462611;28;20736;-71
2021/06/20 03:44:06;;;;;;;10.93;4.30;;;;;;;26.23;52.77;99514.00;10470675;28;20049;-69
2021/06/20 03:49:08;;;;;;;10.35;4.13;;;;;;;26.22;52.58;99506.06;10455467;28;20310;-71
2021/06/20 03:54:10;;;;;;;6.65;3.22;;;;;;;26.09;51.75;99529.84;10458405;28;20075;-70
2021/06/20 03:59:12;;;;;;;6.77;3.50;;;;;;;25.98;51.73;99527.13;10452143;28;20060;-70
2021/06/20 04:04:13;;;;;;;6.15;2.92;;;;;;;25.93;52.09;99536.84;10450753;28;20094;-71
2021/06/20 04:09:15;;;;;;;11.38;3.17;;;;;;;25.89;52.37;99519.31;10455951;28;20041;-74
2021/06/20 04:14:17;;;;;;;4.95;2.75;;;;;;;26.00;51.92;99530.44;10466712;28;20041;-74
2021/06/20 04:19:18;;;;;;;9.38;2.90;;;;;;;25.87;51.85;99526.09;10462617;28;20052;-72
2021/06/20 04:24:20;;;;;;;10.60;3.40;;;;;;;25.96;51.96;99535.53;10455686;28;20049;-74
2021/06/20 04:29:22;;;;;;;6.22;2.83;;;;;;;25.94;52.46;99541.22;10446729;28;20051;-72
2021/06/20 04:34:23;;;;;;;5.90;3.13;;;;;;;25.98;51.72;99541.56;10462089;28;20048;-72
2021/06/20 04:39:25;;;;;;;6.72;3.22;;;;;;;25.86;52.34;99540.78;10461449;28;20091;-76
2021/06/20 04:44:45;;;;;;;7.63;2.90;;;;;;;25.75;52.78;99529.66;10461325;28;20445;-73
2021/06/20 04:49:47;;;;;;;7.18;2.83;;;;;;;25.68;53.04;99539.88;10464980;28;20491;-72
2021/06/20 04:54:49;;;;;;;6.80;3.38;;;;;;;25.74;53.17;99549.81;10463296;28;20521;-74
2021/06/20 04:59:52;;;;;;;5.68;2.58;;;;;;;25.72;52.93;99560.13;10460128;28;20475;-73
2021/06/20 05:04:54;;;;;;;;;;;;;;;25.70;52.89;99559.56;10460085;28;20053;-75
2021/06/20 05:09:55;;;;;;;8.57;2.75;;;;;;;25.64;53.35;99568.69;10466331;28;19921;-72
2021/06/20 05:14:57;;;;;;;6.07;2.65;;;;;;;25.35;54.30;99551.41;10468974;28;20056;-73
2021/06/20 05:19:58;;;;;;;8.70;3.15;;;;;;;25.46;54.61;99555.19;10478715;28;20049;-74
2021/06/20 05:25:01;;;;;;;6.32;2.67;;;;;;;25.50;54.07;99535.41;10473751;28;20166;-73
2021/06/20 05:30:04;;;;;;;;;;;;;;;25.47;54.07;99537.78;10428677;22;20611;-75
2021/06/20 05:35:06;;;;;;;8.57;3.03;;;;;;;25.30;54.03;99557.59;10442197;28;19927;-75
2021/06/20 05:40:08;;;;;;;5.57;3.20;;;;;;;25.17;54.83;99565.94;10431011;28;20044;-76
2021/06/20 05:45:11;;;;;;;8.60;2.37;;;;;;;25.37;53.52;99571.91;10410032;28;20053;-76
2021/06/20 05:50:12;;;;;;;5.63;2.15;;;;;;;25.15;54.28;99593.41;10433909;28;20050;-76
2021/06/20 05:55:14;;;;;;;6.22;2.60;;;;;;;25.05;54.29;99602.16;10442822;28;20049;-76
2021/06/20 06:00:17;;;;;;;6.27;2.73;;;;;;;24.99;54.82;99592.22;10439116;28;20056;-75
2021/06/20 06:05:19;;;;;;;5.67;2.50;;;;;;;25.22;54.20;99601.47;10447935;28;20064;-73
2021/06/20 06:10:21;;;;;;;;;;;;;;;25.55;53.76;99605.53;10441339;28;20483;-75
2021/06/20 06:15:25;;;;;;;4.22;2.42;;;;;;;25.62;53.56;99614.41;10431149;28;20294;-76
2021/06/20 06:20:27;;;;;;;;;;;;;;;25.79;53.19;99605.50;10422086;28;20044;-74
2021/06/20 06:25:28;;;;;;;9.07;2.72;;;;;;;25.71;52.51;99582.16;10430165;28;20170;-73
2021/06/20 06:30:30;;;;;;;2.78;2.35;;;;;;;25.61;52.24;99609.19;10424759;28;20060;-75
2021/06/20 06:35:32;;;;;;;5.63;2.15;;;;;;;25.57;52.83;99619.75;10424198;28;20063;-75
2021/06/20 06:40:35;;;;;;;5.63;2.50;;;;;;;25.53;52.88;99618.56;10427136;28;20057;-75
2021/06/20 06:45:36;;;;;;;;;;;;;;;25.61;52.76;99620.91;10427702;28;20060;-75
2021/06/20 06:50:38;;;;;;;3.70;2.15;;;;;;;25.63;52.49;99632.44;10422517;28;20000;-72
2021/06/20 06:55:40;;;;;;;4.07;2.22;;;;;;;25.80;52.53;99623.53;10423015;28;20083;-74
2021/06/20 07:00:41;;;;;;;5.10;2.15;;;;;;;25.88;51.84;99625.88;10409623;28;20104;-74
2021/06/20 07:05:43;;;;;;;4.78;2.88;;;;;;;25.94;52.28;99635.81;10399237;28;20392;-73
2021/06/20 07:10:44;;;;;;;5.60;2.25;;;;;;;26.02;52.31;99631.94;10398265;28;20057;-76
2021/06/20 07:15:46;;;;;;;5.20;2.22;;;;;;;26.21;51.81;99624.41;10422574;28;20040;-74
2021/06/20 07:20:48;;;;;;;4.18;2.15;;;;;;;26.34;52.06;99621.38;10427541;28;20041;-75
2021/06/20 07:25:50;;;;;;;6.27;2.57;;;;;;;26.33;51.72;99606.09;10414471;28;20049;-72
2021/06/20 07:30:52;;;;;;;4.20;2.42;;;;;;;26.31;52.04;99635.53;10419465;28;20060;-73
2021/06/20 07:35:53;;;;;;;8.13;3.60;;;;;;;26.50;51.53;99627.13;10418909;28;20053;-74
2021/06/20 07:40:55;;;;;;;6.07;2.83;;;;;;;26.57;51.61;99636.00;10420804;28;20518;-78
2021/06/20 07:46:00;;;;;;;6.70;2.88;;;;;;;26.67;50.56;99636.22;10423210;28;20128;-77
2021/06/20 07:51:02;;;;;;;2.70;2.22;;;;;;;26.56;50.93;99643.38;10423756;28;20049;-73
2021/06/20 07:56:04;;;;;;;4.70;2.40;;;;;;;26.23;51.91;99633.19;10414041;28;20053;-75
2021/06/20 08:01:06;;;;;;;3.67;2.70;;;;;;;26.51;51.88;99640.53;10417057;28;20048;-72
2021/06/20 08:06:07;;;;;;;6.50;3.05;;;;;;;26.66;50.84;99626.34;10415784;28;20048;-73
2021/06/20 08:11:09;;;;;;;6.18;2.85;;;;;;;26.87;50.22;99610.38;10425385;28;20529;-74
2021/06/20 08:16:10;;;;;;;4.82;2.83;;;;;;;27.25;49.24;99614.25;10425345;28;21616;-75
2021/06/20 08:21:12;;;;;;;4.20;2.53;;;;;;;27.42;48.65;99622.50;10423996;28;20513;-75
2021/06/20 08:26:14;;;;;;;3.90;2.72;;;;;;;27.38;48.40;99621.31;10420254;28;20064;-71
2021/06/20 08:31:15;;;;;;;7.07;2.97;;;;;;;27.15;48.63;99623.94;10423042;28;20045;-75
2021/06/20 08:36:17;;;;;;;5.35;2.58;;;;;;;27.45;47.94;99650.13;10427037;28;20494;-75
2021/06/20 08:41:21;;;;;;;6.43;2.55;;;;;;;27.27;48.38;99644.91;10429112;28;20053;-75
2021/06/20 08:46:24;;;;;;;8.27;2.55;;;;;;;27.67;47.09;99638.44;10416902;28;20060;-75
2021/06/20 08:51:26;;;;;;;4.45;2.35;;;;;;;27.84;46.06;99620.06;10417142;28;20055;-76
2021/06/20 08:56:28;;;;;;;7.00;2.70;;;;;;;27.50;46.61;99638.44;10420078;28;20041;-75
2021/06/20 09:01:29;;;;;;;4.85;2.72;;;;;;;28.03;45.65;99633.50;10425644;28;20060;-75
2021/06/20 09:06:32;;;;;;;6.03;2.20;;;;;;;28.33;43.17;99610.28;10425431;28;20057;-76
2021/06/20 09:11:37;;;;;;;3.97;2.03;;;;;;;28.29;44.02;99620.13;10426963;28;20788;-77
2021/06/20 09:16:49;;;;;;;2.85;1.90;;;;;;;28.41;42.63;99618.06;10420936;28;20134;-76
2021/06/20 09:21:52;;;;;;;3.13;2.00;;;;;;;28.50;42.70;99621.16;10422633;28;20054;-76
2021/06/20 09:26:56;;;;;;;4.13;2.35;;;;;;;28.55;42.72;99622.06;10426737;28;22789;-76
2021/06/20 09:31:59;;;;;;;4.30;1.80;;;;;;;28.37;43.10;99634.19;10425639;28;20041;-78
2021/06/20 09:37:03;;;;;;;3.33;2.40;;;;;;;28.70;42.81;99621.38;10425551;28;20060;-76
2021/06/20 09:42:10;;;;;;;5.72;2.88;;;;;;;29.33;42.03;99622.78;10424494;28;20049;-76
2021/06/20 09:47:17;;;;;;;3.72;2.80;;;;;;;29.68;41.47;99618.59;10446154;28;20495;-76
2021/06/20 09:52:33;;;;;;;3.58;2.53;;;;;;;29.92;40.61;99625.34;10420243;28;20053;-77
2021/06/20 09:57:43;;;;;;;5.32;2.90;;;;;;;29.68;41.28;99621.34;10420768;28;20041;-76
2021/06/20 10:02:46;;;;;;;4.65;3.28;;;;;;;29.65;41.21;99603.53;10432708;28;20461;-77
2021/06/20 10:07:48;;;;;;;2.97;2.70;;;;;;;29.61;41.28;99597.72;10428828;28;20046;-78
2021/06/20 10:12:49;;;;;;;4.53;3.43;;;;;;;29.19;41.98;99604.00;10429529;28;20748;-76
2021/06/20 10:17:57;;;;;;;4.60;2.92;;;;;;;28.89;42.17;99602.66;10427682;28;20045;-76
2021/06/20 10:22:59;;;;;;;4.47;2.80;;;;;;;28.80;43.05;99603.41;10424827;28;20134;-76
2021/06/20 10:28:03;;;;;;;4.25;3.13;;;;;;;28.59;43.64;99584.03;10431156;28;20152;-76
2021/06/20 10:33:16;;;;;;;6.43;3.25;;;;;;;28.56;43.87;99581.81;10426136;28;20060;-76
2021/06/20 10:38:42;;;;;;;7.60;3.53;;;;;;;28.60;43.69;99573.91;10409575;28;20057;-76
2021/06/20 10:43:54;;;;;;;4.13;3.30;;;;;;;28.35;44.19;99575.31;10423763;28;20534;-74
2021/06/20 10:48:55;;;;;;;3.55;2.83;;;;;;;28.47;43.79;99584.19;10429446;28;20049;-76
2021/06/20 10:53:57;;;;;;;5.13;2.83;;;;;;;28.56;43.18;99568.94;10423659;28;20045;-77
2021/06/20 10:59:22;;;;;;;4.00;2.53;;;;;;;28.91;43.01;99589.56;10423633;28;20276;-76
2021/06/20 11:04:24;;;;;;;5.03;3.65;;;;;;;29.07;41.73;99576.78;10421798;28;20060;-76
2021/06/20 11:09:36;;;;;;;4.33;2.80;;;;;;;29.10;41.11;99572.72;10425201;28;20060;-78
2021/06/20 11:14:45;;;;;;;4.47;2.60;;;;;;;29.06;41.06;99552.41;10434786;28;20488;-77
2021/06/20 11:19:47;;;;;;;3.80;2.70;;;;;;;29.38;40.98;99555.13;10424216;28;20048;-78
2021/06/20 11:24:50;;;;;;;3.37;2.10;;;;;;;29.62;39.34;99563.75;10423511;28;20071;-78
2021/06/20 11:35:06;;;;;;;3.78;2.03;;;;;;;30.09;37.63;99531.03;10339243;28;20049;-67
2021/06/20 11:40:17;;;;;;;3.65;2.70;;;;;;;30.44;38.03;99537.72;10385436;28;20049;-68
2021/06/20 11:45:21;;;;;;;4.30;2.30;;;;;;;30.76;37.92;99550.34;10392166;28;20068;-68
2021/06/20 11:50:30;;;;;;;4.57;2.50;;;;;;;31.07;37.91;99518.22;10392548;28;20055;-69
2021/06/20 11:55:35;;;;;;;5.93;2.42;;;;;;;31.18;37.45;99519.03;10392010;28;20064;-67
2021/06/20 12:00:39;;;;;;;3.88;2.17;;;;;;;31.05;38.60;99520.44;10395066;28;20057;-67
2021/06/20 12:05:50;;;;;;;2.92;2.63;;;;;;;31.14;38.08;99495.97;10387520;28;20057;-67
2021/06/20 12:10:52;;;;;;;5.40;2.30;;;;;;;31.48;37.93;99492.53;10393163;28;20068;-68
2021/06/20 12:16:00;;;;;;;4.38;2.03;;;;;;;31.83;37.51;99480.59;10385086;28;20811;-68
2021/06/20 12:21:02;;;;;;;3.90;2.50;;;;;;;32.00;36.51;99469.19;10397454;28;20057;-69
2021/06/20 12:26:04;;;;;;;;;;;;;;;31.70;36.87;99487.53;10392585;28;20052;-67
2021/06/20 12:31:10;;;;;;;3.97;2.20;;;;;;;31.34;36.72;99482.13;10399836;28;19921;-67
2021/06/20 12:36:12;;;;;;;4.63;2.03;;;;;;;31.41;37.72;99473.59;10428943;28;20059;-68
2021/06/20 12:41:20;;;;;;;;;;;;;;;31.79;36.16;99463.00;10425336;28;20726;-68
2021/06/20 12:46:28;;;;;;;5.65;2.47;;;;;;;31.99;35.58;99461.22;10410296;28;19936;-67
2021/06/20 12:51:43;;;;;;;4.45;2.40;;;;;;;31.69;36.22;99447.38;10429410;28;20178;-66
2021/06/20 12:56:44;;;;;;;2.85;1.63;;;;;;;31.24;37.43;99434.63;10427925;28;20057;-67
2021/06/20 13:01:49;;;;;;;3.10;2.20;;;;;;;31.37;37.10;99429.34;10431254;28;20057;-67
2021/06/20 13:06:53;;;;;;;3.00;2.03;;;;;;;31.09;35.47;99408.03;10430671;28;20338;-67
2021/06/20 13:11:55;;;;;;;4.70;1.50;;;;;;;31.26;36.61;99402.19;10430261;28;20056;-68
2021/06/20 13:16:56;;;;;;;2.92;1.83;;;;;;;31.20;37.44;99398.66;10432667;28;20757;-67
2021/06/20 13:21:58;;;;;;;5.30;2.38;;;;;;;31.32;37.09;99379.91;10432981;28;20064;-66
2021/06/20 13:27:00;;;;;;;4.70;2.40;;;;;;;31.24;36.58;99369.47;10425918;28;20425;-66
2021/06/20 13:32:01;;;;;;;3.67;2.03;;;;;;;30.96;35.51;99374.53;10427861;28;20045;-66
2021/06/20 13:37:05;;;;;;;;;;;;;;;30.88;36.27;99364.09;10437883;28;20189;-66
2021/06/20 13:42:07;;;;;;;2.72;1.63;;;;;;;30.76;35.54;99371.81;10431974;28;19932;-66
2021/06/20 13:47:09;;;;;;;2.72;1.50;;;;;;;30.65;34.51;99368.28;10435591;28;20044;-66
2021/06/20 13:52:11;;;;;;;2.55;1.25;;;;;;;30.60;34.19;99360.88;10430243;28;20449;-69
2021/06/20 13:57:12;;;;;;;4.07;1.70;;;;;;;30.52;35.08;99336.72;10429961;28;20053;-73
2021/06/20 14:02:15;;;;;;;3.92;1.88;;;;;;;30.57;34.02;99344.97;10429570;28;20049;-66
2021/06/20 14:07:17;;;;;;;2.10;1.30;;;;;;;30.62;34.20;99327.66;10433736;28;20098;-67
2021/06/20 14:12:27;;;;;;;3.08;1.98;;;;;;;30.59;34.87;99323.53;10428854;28;20048;-67
2021/06/20 14:17:28;;;;;;;3.63;1.77;;;;;;;30.74;34.96;99319.09;10436967;28;20086;-67
2021/06/20 14:22:30;;;;;;;5.47;1.88;;;;;;;30.78;34.83;99323.75;10431830;28;20041;-70
2021/06/20 14:27:33;;;;;;;3.38;1.90;;;;;;;30.69;36.11;99308.97;10428967;28;20048;-66
2021/06/20 14:32:35;;;;;;;3.92;1.55;;;;;;;30.84;36.12;99305.34;10422365;28;20053;-66
2021/06/20 14:37:38;;;;;;;2.53;1.10;;;;;;;30.75;35.08;99307.03;10429521;28;20711;-68
2021/06/20 14:42:41;;;;;;;4.95;1.70;;;;;;;30.54;34.88;99282.38;10427899;28;20068;-66
2021/06/20 14:47:43;;;;;;;1.45;1.23;;;;;;;30.59;33.60;99298.81;10422254;28;20126;-66
2021/06/20 14:52:44;;;;;;;1.80;1.20;;;;;;;30.56;32.83;99271.94;10425288;28;20040;-67
2021/06/20 14:57:49;;;;;;;2.88;1.10;;;;;;;30.59;33.61;99260.38;10425040;28;20132;-67
2021/06/20 15:02:51;;;;;;;2.67;0.95;;;;;;;30.75;32.76;99274.88;10422245;28;20421;-67
2021/06/20 15:07:54;;;;;;;2.35;1.40;;;;;;;30.57;32.47;99294.72;10426447;28;20049;-66
2021/06/20 15:12:55;;;;;;;4.97;1.52;;;;;;;30.57;32.74;99292.00;10422769;28;20060;-67
2021/06/20 15:17:58;;;;;;;2.60;0.93;;;;;;;30.49;32.93;99296.94;10423082;28;20068;-66
2021/06/20 15:23:02;;;;;;;4.75;1.42;;;;;;;30.40;33.00;99293.13;10423746;28;20049;-67
2021/06/20 15:28:04;;;;;;;2.78;1.33;;;;;;;30.23;33.51;99296.13;10424516;28;20148;-66
2021/06/20 15:33:07;;;;;;;1.88;1.20;;;;;;;30.08;34.58;99294.22;10429711;28;20041;-67
2021/06/20 15:38:10;;;;;;;4.68;1.60;;;;;;;30.14;34.97;99303.28;10417390;28;20053;-67
2021/06/20 15:43:12;;;;;;;6.53;1.80;;;;;;;30.11;35.16;99287.38;10424484;28;20493;-67
2021/06/20 15:48:13;;;;;;;3.17;1.30;;;;;;;30.17;35.29;99285.47;10427058;28;21038;-67
2021/06/20 15:53:15;;;;;;;3.80;2.13;;;;;;;30.22;35.73;99283.53;10419976;28;20059;-67
2021/06/20 15:58:16;;;;;;;3.33;1.60;;;;;;;30.03;36.83;99282.47;10423280;28;20049;-65
2021/06/20 16:03:18;;;;;;;3.03;1.33;;;;;;;29.87;37.41;99282.44;10418905;28;20303;-67
2021/06/20 16:08:20;;;;;;;3.40;1.65;;;;;;;29.63;37.97;99268.44;10421645;28;20321;-66
2021/06/20 16:13:22;;;;;;;4.78;1.70;;;;;;;29.52;38.24;99258.59;10425140;28;20059;-66
2021/06/20 16:18:24;;;;;;;;;;;;;;;29.36;37.92;99239.34;10421018;28;20049;-67
2021/06/20 16:23:25;;;;;;;7.72;5.63;;;;;;;29.42;38.34;99249.22;10422258;28;19956;-65
2021/06/20 16:28:27;;;;;;;3.37;1.70;;;;;;;29.36;39.12;99233.06;10416880;28;21140;-66
2021/06/20 16:33:29;;;;;;;5.03;2.15;;;;;;;29.46;39.22;99238.56;10429396;28;20210;-67
2021/06/20 16:38:30;;;;;;;3.97;2.50;;;;;;;29.33;39.84;99236.34;10433439;28;20048;-67
2021/06/20 16:43:32;;;;;;;7.03;2.30;;;;;;;29.29;40.04;99237.97;10425101;28;20397;-68
2021/06/20 16:48:33;;;;;;;8.77;2.67;;;;;;;29.30;40.03;99210.31;10428920;28;22984;-67
2021/06/20 16:53:35;;;;;;;5.03;2.23;;;;;;;29.27;40.49;99203.47;10469802;28;20052;-68
2021/06/20 16:58:37;;;;;;;5.67;2.10;;;;;;;29.27;40.41;99191.69;10467980;28;20129;-67
2021/06/20 17:03:38;;;;;;;7.90;2.60;;;;;;;29.23;40.25;99164.00;10461596;28;20903;-67
2021/06/20 17:08:40;;;;;;;4.80;1.97;;;;;;;29.19;40.33;99173.84;10452496;28;20048;-68
2021/06/20 17:13:41;;;;;;;7.20;3.00;;;;;;;29.09;41.25;99193.00;10469741;28;20082;-67
2021/06/20 17:18:47;;;;;;;11.25;3.00;;;;;;;29.03;41.26;99199.56;10459609;28;20047;-68
2021/06/20 17:23:49;;;;;;;6.05;2.53;;;;;;;29.04;41.20;99195.75;10464748;28;20060;-68
2021/06/20 17:28:51;;;;;;;7.47;2.70;;;;;;;29.03;41.38;99177.66;10469690;28;20266;-67
2021/06/20 17:33:52;;;;;;;5.17;2.20;;;;;;;29.00;41.33;99170.78;10461214;28;20051;-69
2021/06/20 17:38:54;;;;;;;7.87;3.33;;;;;;;28.96;41.80;99164.22;10468480;28;20056;-66
2021/06/20 17:43:56;;;;;;;11.02;3.10;;;;;;;28.84;41.75;99167.22;10469231;28;20243;-66
2021/06/20 17:48:57;;;;;;;10.57;2.80;;;;;;;28.68;41.99;99165.53;10467046;28;20428;-68
2021/06/20 17:53:59;;;;;;;9.30;3.43;;;;;;;28.63;42.35;99170.97;10466215;28;20044;-67
2021/06/20 17:59:00;;;;;;;8.87;3.33;;;;;;;28.60;42.03;99168.78;10463072;28;20059;-63
2021/06/20 18:04:02;;;;;;;9.93;3.17;;;;;;;28.55;41.96;99172.28;10465087;28;20570;-61
2021/06/20 18:09:07;;;;;;;8.90;3.13;;;;;;;28.52;42.27;99170.91;10459041;28;20059;-68
2021/06/20 18:14:09;;;;;;;8.00;3.42;;;;;;;28.47;42.34;99159.97;10446105;28;20055;-67
2021/06/20 18:19:10;;;;;;;6.53;3.10;;;;;;;28.37;42.58;99146.25;10466783;28;20062;-67
2021/06/20 18:24:12;;;;;;;6.15;2.35;;;;;;;28.26;42.26;99153.59;10466923;28;20047;-67
2021/06/20 18:29:14;;;;;;;5.78;2.97;;;;;;;28.23;42.69;99145.09;10469837;28;22828;-65
2021/06/20 18:34:15;;;;;;;6.85;2.60;;;;;;;28.18;42.87;99143.16;10465626;28;20064;-66
2021/06/20 18:39:17;;;;;;;4.25;2.80;;;;;;;28.08;43.01;99149.41;10462401;28;20044;-65
2021/06/20 18:44:19;;;;;;;4.77;2.60;;;;;;;27.93;42.94;99141.09;10460165;28;20511;-64
2021/06/20 18:49:20;;;;;;;7.63;3.20;;;;;;;27.86;43.03;99153.09;10459091;28;20310;-63
2021/06/20 18:54:22;;;;;;;7.07;2.90;;;;;;;27.83;43.71;99155.50;10439885;28;20067;-63
2021/06/20 18:59:24;;;;;;;5.68;2.92;;;;;;;27.78;43.88;99161.78;10460698;28;20064;-63
2021/06/20 19:04:26;;;;;;;6.78;2.75;;;;;;;27.74;45.22;99160.66;10460908;28;20199;-64
2021/06/20 19:09:27;;;;;;;6.57;3.15;;;;;;;27.69;46.17;99146.97;10467405;28;20640;-64
2021/06/20 19:14:29;;;;;;;4.50;2.97;;;;;;;27.67;47.27;99143.69;10464024;28;20055;-63
2021/06/20 19:19:31;;;;;;;5.70;3.00;;;;;;;27.68;49.96;99137.09;10462370;28;20052;-63
2021/06/20 19:24:32;;;;;;;4.82;2.90;;;;;;;27.63;51.37;99137.09;10461058;28;20052;-64
2021/06/20 19:29:34;;;;;;;5.37;3.40;;;;;;;27.55;52.12;99148.50;10461145;28;20408;-63
2021/06/20 19:34:36;;;;;;;8.20;3.13;;;;;;;27.41;52.91;99142.66;10460764;28;20053;-64
2021/06/20 19:39:39;;;;;;;6.32;3.53;;;;;;;27.36;54.23;99151.66;10453261;28;20049;-64
2021/06/20 19:44:40;;;;;;;5.80;3.22;;;;;;;27.30;54.19;99149.94;10459788;28;20078;-63
2021/06/20 19:49:42;;;;;;;4.45;2.67;;;;;;;27.19;55.71;99137.25;10445904;28;20051;-64
2021/06/20 19:54:44;;;;;;;6.40;3.50;;;;;;;27.13;56.14;99133.69;10464319;28;20116;-64
2021/06/20 19:59:45;;;;;;;7.20;4.03;;;;;;;27.09;56.32;99122.44;10453223;28;20048;-66
2021/06/20 20:04:47;;;;;;;5.35;3.60;;;;;;;27.04;56.74;99111.47;10447402;28;20060;-65
2021/06/20 20:09:48;;;;;;;7.22;3.17;;;;;;;26.95;57.24;99096.66;10455878;28;20052;-64
2021/06/20 20:14:50;;;;;;;6.55;3.95;;;;;;;26.94;57.83;99067.69;10471561;28;20055;-64
2021/06/20 20:19:51;;;;;;;9.35;3.95;;;;;;;26.90;56.90;99061.09;10469331;28;20048;-65
2021/06/20 20:24:53;;;;;;;5.07;3.50;;;;;;;26.83;57.14;99079.59;10456081;28;20052;-66
2021/06/20 20:29:54;;;;;;;5.55;3.85;;;;;;;26.75;57.57;99109.03;10470602;28;20047;-64
2021/06/20 20:34:56;;;;;;;5.95;4.18;;;;;;;26.59;57.46;99139.94;10476860;28;20049;-64
2021/06/20 20:39:57;;;;;;;6.78;3.88;;;;;;;26.42;58.09;99146.31;10471736;28;20055;-64
2021/06/20 20:45:00;;;;;;;9.15;4.88;;;;;;;26.27;59.43;99166.03;10490265;28;20047;-65
2021/06/20 20:50:04;;;;;;;7.97;4.13;;;;;;;26.06;60.32;99181.31;10496576;28;20056;-65
2021/06/20 20:55:09;;;;;;;5.68;3.67;;;;;;;26.03;60.15;99160.00;10498553;28;20068;-66
2021/06/20 21:00:13;;;;;;;8.20;4.28;;;;;;;25.98;61.75;99189.88;10497658;28;20417;-64
2021/06/20 21:05:17;;;;;;;10.40;4.88;;;;;;;25.52;63.88;99203.63;10495403;28;20056;-65
2021/06/20 21:10:18;;;;;;;11.10;4.78;;;;;;;25.33;63.30;99216.66;10494956;28;20505;-66
2021/06/20 21:15:21;;;;;;;5.97;2.55;;;;;;;24.81;64.69;99236.63;10507797;28;20057;-65
2021/06/20 21:20:23;;;;;;;6.93;1.37;;;;;;;23.81;67.83;99227.63;10505430;28;20057;-65
2021/06/20 21:25:26;;;;;;;7.20;1.27;;;;;;;23.57;67.93;99249.31;10482407;28;20048;-66
2021/06/20 21:30:28;;;;;;;6.27;1.30;;;;;;;23.07;70.14;99260.44;10493273;28;20070;-64
2021/06/20 21:35:30;;;;;;;4.28;1.05;;;;;;;23.08;70.94;99262.09;10491965;28;20048;-64
2021/06/20 21:40:31;;;;;;;5.40;1.42;;;;;;;23.08;71.07;99259.41;10487455;28;20409;-64
2021/06/20 21:45:33;;;;;;;2.72;0.80;;;;;;;22.82;72.48;99241.56;10497379;28;20505;-64
2021/06/20 21:50:35;;;;;;;3.70;0.68;;;;;;;22.69;73.14;99231.72;10495228;28;20052;-61
2021/06/20 21:55:37;;;;;;;3.30;0.90;;;;;;;22.70;72.72;99223.38;10494939;28;20515;-62
2021/06/20 22:00:39;;;;;;;4.10;0.90;;;;;;;22.88;72.96;99230.66;10490786;28;20055;-62
2021/06/20 22:05:40;;;;;;;2.88;0.80;;;;;;;23.05;73.88;99202.88;10496991;28;20652;-62
2021/06/20 22:10:42;;;;;;;4.10;0.77;;;;;;;23.07;73.47;99192.59;10492625;28;20066;-63
2021/06/20 22:15:43;;;;;;;5.38;1.10;;;;;;;23.06;74.24;99144.81;10494052;28;20052;-64
2021/06/20 22:20:45;;;;;;;4.10;1.00;;;;;;;23.24;74.41;99109.47;10495484;28;20048;-62
2021/06/20 22:25:47;;;;;;;2.83;1.48;;;;;;;23.30;73.17;99054.25;10482296;28;20048;-63
2021/06/20 22:30:51;;;;;;;2.65;0.82;;;;;;;23.39;73.82;99040.28;10489278;28;20056;-63
2021/06/20 22:35:53;;;;;;;5.68;0.98;;;;;;;23.32;74.77;99034.19;10479443;28;20064;-63
2021/06/20 22:40:54;;;;;;;3.20;0.95;;;;;;;23.24;74.66;99022.63;10487644;28;20093;-63
2021/06/20 22:45:56;;;;;;;6.65;1.30;;;;;;;23.21;74.40;99014.94;10476824;28;20056;-66
2021/06/20 22:50:58;;;;;;;4.90;0.93;;;;;;;23.20;75.08;99007.84;10496645;28;20156;-64
2021/06/20 22:55:59;;;;;;;4.45;0.88;;;;;;;23.16;74.61;99003.97;10493567;28;20409;-64
2021/06/20 23:01:02;;;;;;;3.85;1.65;;;;;;;23.08;74.71;99002.41;10488030;28;20128;-63
2021/06/20 23:06:04;;;;;;;5.03;1.52;;;;;;;22.78;75.52;98997.06;10470553;28;20470;-64
2021/06/20 23:11:06;;;;;;;4.57;1.33;;;;;;;22.75;75.89;98970.41;10493522;28;20044;-63
2021/06/20 23:16:07;;;;;;;4.30;1.40;;;;;;;22.76;76.26;98986.47;10474721;28;20059;-64
2021/06/20 23:21:09;;;;;;;4.47;1.40;;;;;;;22.62;76.01;98976.88;10499170;28;20481;-62
2021/06/20 23:26:10;;;;;;;3.75;0.93;;;;;;;22.49;76.59;98961.66;10480216;28;20040;-62
2021/06/20 23:31:12;;;;;;;4.85;1.23;;;;;;;22.54;75.31;98972.63;10478944;28;20044;-63
2021/06/20 23:41:25;;;;;;;5.05;1.27;;;;;;;22.03;79.31;99101.31;10379472;28;20045;-63